Elabuga, Russia
Current Conditions -  °F | °C
As of 11:30 AM on Saturday 25 Oct 2014 (Local Time) from UWKE Reporting Station
Snow Showers Snow Showers  
Wind Chill:   Ceiling: 1600
Heat Index: 21°   Visibility: 1.3mi
Dew Point: 12°   Wind: 16mph
Humidity: 68%   Direction: 340°NNW
Pressure: 30.18"   Gusts: NA
Location:  55.77°N, 52.07°E
Report Text: UWKE 250830Z 34007MPS 2100 -SHSN BKN016CB M06/M11 Q1022 NOSIGRMK QFE750/1000 21090070
Loading
Personal Weather Stations






























Interactive Weather Map
Tropical Storm Tracking
New forecast layout! Learn more

10-Day Weather Forecast

Advertisements
Track Severe Weather on mobile